Lafayette Springs, Mississippi
Current Conditions -  °F | °C
As of 12:15 PM on Thursday 23 Oct 2014 (Local Time) from KUOX Reporting Station
Clear Clear  
Wind Chill: 61°   Ceiling: Unl
Heat Index: 61°   Visibility: 10mi
Dew Point: 41°   Wind: 5mph
Humidity: 48%   Direction: 30°NNE
Pressure: 30.19"   Gusts: NA
Location:  34.3453°N, 89.396°W
Report Text: KUOX 231715Z AUTO 03004KT 10SM CLR 16/05 A3019 RMK AO2 PWINO PNO
Loading
Personal Weather Stations






























Interactive Weather Map
Tropical Storm Tracking
New forecast layout! Learn more

10-Day Weather Forecast

Advertisements
Track Severe Weather on mobile